createdAt,value
2019-04-11T00:01:34.215Z,-0.04
2019-04-11T00:03:55.717Z,-0.04
2019-04-11T00:06:28.285Z,-0.04
2019-04-11T00:09:00.786Z,-0.04
2019-04-11T00:11:35.773Z,0.02
2019-04-11T00:14:08.019Z,0.14
2019-04-11T00:16:41.531Z,0.16
2019-04-11T00:19:14.036Z,0.16
2019-04-11T00:21:46.758Z,0.19
2019-04-11T00:24:20.805Z,0.21
2019-04-11T00:26:56.905Z,0.20
2019-04-11T00:29:30.299Z,0.16
2019-04-11T00:32:04.989Z,0.15
2019-04-11T00:34:37.367Z,0.12
2019-04-11T00:37:10.719Z,0.18
2019-04-11T00:39:43.738Z,0.18
2019-04-11T00:42:16.642Z,0.19
2019-04-11T00:44:49.522Z,0.18
2019-04-11T00:47:22.744Z,0.24
2019-04-11T00:49:55.410Z,0.24
2019-04-11T00:52:27.986Z,0.27
2019-04-11T00:55:00.098Z,0.28
2019-04-11T00:57:32.805Z,0.28
2019-04-11T01:00:09.010Z,0.22
2019-04-11T01:02:43.275Z,0.21
2019-04-11T01:05:17.292Z,0.15
2019-04-11T01:07:49.893Z,0.13
2019-04-11T01:10:24.507Z,0.05
2019-04-11T01:12:57.297Z,0.00
2019-04-11T01:15:29.772Z,0.00
2019-04-11T01:18:03.524Z,0.08
2019-04-11T01:20:37.773Z,0.08
2019-04-11T01:23:11.035Z,0.06
2019-04-11T01:25:46.405Z,0.06
2019-04-11T01:28:19.321Z,0.06
2019-04-11T01:31:11.619Z,0.07
2019-04-11T01:33:44.292Z,0.06
2019-04-11T01:36:16.807Z,0.09
2019-04-11T01:38:50.930Z,0.08
2019-04-11T01:41:24.572Z,0.09
2019-04-11T01:44:02.146Z,0.04
2019-04-11T01:46:31.947Z,-0.04
2019-04-11T01:49:10.141Z,-0.10
2019-04-11T01:51:42.712Z,-0.15
2019-04-11T01:54:15.337Z,-0.22
2019-04-11T01:56:47.767Z,-0.26
2019-04-11T01:59:21.535Z,-0.29
2019-04-11T02:01:56.911Z,-0.30
2019-04-11T02:04:32.080Z,-0.30
2019-04-11T02:07:05.135Z,-0.36
2019-04-11T02:09:37.997Z,-0.38
2019-04-11T02:12:10.226Z,-0.38
2019-04-11T02:14:43.827Z,-0.40
2019-04-11T02:17:16.792Z,-0.44
2019-04-11T02:19:50.256Z,-0.45
2019-04-11T02:22:40.433Z,-0.51
2019-04-11T02:25:28.293Z,-0.51
2019-04-11T02:28:04.868Z,-0.51
2019-04-11T02:30:41.210Z,-0.43
2019-04-11T02:33:14.071Z,-0.42
2019-04-11T02:35:49.249Z,-0.42
2019-04-11T02:38:23.563Z,-0.42
2019-04-11T02:40:57.835Z,-0.40
2019-04-11T02:43:31.952Z,-0.41
2019-04-11T02:46:11.769Z,-0.33
2019-04-11T02:48:40.491Z,-0.27
2019-04-11T02:51:14.619Z,-0.31
2019-04-11T02:53:49.389Z,-0.35
2019-04-11T02:56:23.762Z,-0.35
2019-04-11T02:58:57.605Z,-0.34
2019-04-11T03:01:31.724Z,-0.39
2019-04-11T03:04:04.987Z,-0.37
2019-04-11T03:06:39.670Z,-0.38
2019-04-11T03:09:13.307Z,-0.44
2019-04-11T03:11:47.231Z,-0.48
2019-04-11T03:14:20.768Z,-0.51
2019-04-11T03:17:02.505Z,-0.57
2019-04-11T03:19:42.285Z,-0.64
2019-04-11T03:22:03.316Z,-0.72
2019-04-11T03:24:36.110Z,-0.75
2019-04-11T03:27:10.051Z,-0.80
2019-04-11T03:29:43.166Z,-0.81
2019-04-11T03:33:08.021Z,-0.82
2019-04-11T03:35:34.936Z,-0.90
2019-04-11T03:37:55.112Z,-0.90
2019-04-11T03:40:23.869Z,-0.89
2019-04-11T03:42:51.213Z,-0.88
2019-04-11T03:45:33.263Z,-0.88
2019-04-11T03:48:02.355Z,-0.87
2019-04-11T03:50:23.347Z,-0.86
2019-04-11T03:52:53.888Z,-0.87
2019-04-11T03:55:28.441Z,-0.86
2019-04-11T03:58:03.633Z,-0.86
2019-04-11T04:00:40.589Z,-0.89
2019-04-11T04:03:11.405Z,-0.89
2019-04-11T04:05:44.940Z,-0.88
2019-04-11T04:08:20.330Z,-0.92
2019-04-11T04:11:12.380Z,-0.90
2019-04-11T04:13:48.220Z,-0.91
2019-04-11T04:16:39.848Z,-0.90
2019-04-11T04:19:10.846Z,-0.89
2019-04-11T04:21:44.335Z,-0.84
2019-04-11T04:24:32.113Z,-0.84
2019-04-11T04:27:04.532Z,-0.82
2019-04-11T04:29:37.987Z,-0.83
2019-04-11T04:32:14.113Z,-0.76
2019-04-11T04:34:49.057Z,-0.76
2019-04-11T04:37:22.366Z,-0.72
2019-04-11T04:40:13.222Z,-0.68
2019-04-11T04:42:36.627Z,-0.61
2019-04-11T04:45:07.945Z,-0.53
2019-04-11T04:47:47.980Z,-0.48
2019-04-11T04:50:15.469Z,-0.43
2019-04-11T04:52:49.183Z,-0.32
2019-04-11T04:55:23.410Z,-0.27
2019-04-11T04:57:57.572Z,-0.22
2019-04-11T05:00:31.989Z,-0.04
2019-04-11T05:03:05.467Z,-0.04
2019-04-11T05:05:38.850Z,0.06
2019-04-11T05:08:11.233Z,0.16
2019-04-11T05:10:44.948Z,0.29
2019-04-11T05:13:17.668Z,0.42
2019-04-11T05:16:02.763Z,0.52
2019-04-11T05:18:23.943Z,0.57
2019-04-11T05:20:56.982Z,0.66
2019-04-11T05:23:29.781Z,0.72
2019-04-11T05:26:03.398Z,0.85
2019-04-11T05:28:37.194Z,0.97
2019-04-11T05:31:10.204Z,1.09
2019-04-11T05:33:43.487Z,1.13
2019-04-11T05:36:16.609Z,1.32
2019-04-11T05:38:49.137Z,1.38
2019-04-11T05:41:23.042Z,1.45
2019-04-11T05:43:55.690Z,1.66
2019-04-11T05:46:35.473Z,1.68
2019-04-11T05:49:05.434Z,1.87
2019-04-11T05:51:41.632Z,1.87
2019-04-11T05:54:14.144Z,2.18
2019-04-11T05:56:52.043Z,2.18
2019-04-11T05:59:24.040Z,2.25
2019-04-11T06:02:05.257Z,2.31
2019-04-11T06:04:34.459Z,2.49
2019-04-11T06:07:23.771Z,2.61
2019-04-11T06:10:08.469Z,2.61
2019-04-11T06:12:45.539Z,2.74
2019-04-11T06:15:20.381Z,2.95
2019-04-11T06:17:54.543Z,3.10
2019-04-11T06:20:37.997Z,3.00
2019-04-11T06:23:12.868Z,3.00
2019-04-11T06:25:53.401Z,3.05
2019-04-11T06:28:28.735Z,3.04
2019-04-11T06:31:20.166Z,3.21
2019-04-11T06:33:58.782Z,3.31
2019-04-11T06:36:43.421Z,3.49
2019-04-11T06:39:18.947Z,3.67
2019-04-11T06:41:54.881Z,3.82
2019-04-11T06:44:32.274Z,3.86
2019-04-11T06:47:08.226Z,4.07
2019-04-11T06:49:46.681Z,4.22
2019-04-11T06:52:20.893Z,4.39
2019-04-11T06:54:56.054Z,4.42
2019-04-11T06:57:30.629Z,4.44
2019-04-11T07:00:05.243Z,4.51
2019-04-11T07:02:39.561Z,4.69
2019-04-11T07:05:13.987Z,4.80
2019-04-11T07:07:49.386Z,4.99
2019-04-11T07:10:39.015Z,4.56
2019-04-11T07:13:19.056Z,4.96
2019-04-11T07:15:52.775Z,5.14
2019-04-11T07:18:35.855Z,5.45
2019-04-11T07:21:10.594Z,5.60
2019-04-11T07:24:00.913Z,5.66
2019-04-11T07:26:35.156Z,5.59
2019-04-11T07:29:25.770Z,5.87
2019-04-11T07:32:09.389Z,5.26
2019-04-11T07:35:00.102Z,5.08
2019-04-11T07:37:34.370Z,5.29
2019-04-11T07:40:10.439Z,4.84
2019-04-11T07:42:52.785Z,4.56
2019-04-11T07:45:29.994Z,5.31
2019-04-11T07:48:07.265Z,5.12
2019-04-11T07:50:40.294Z,4.77
2019-04-11T07:53:14.404Z,4.85
2019-04-11T07:55:47.552Z,5.28
2019-04-11T07:58:30.872Z,5.23
2019-04-11T08:01:05.136Z,5.15
2019-04-11T08:03:51.303Z,4.94
2019-04-11T08:06:26.495Z,5.15
2019-04-11T08:09:15.505Z,5.08
2019-04-11T08:11:49.840Z,5.36
2019-04-11T08:14:24.560Z,6.00
2019-04-11T08:17:01.725Z,5.67
2019-04-11T08:19:35.771Z,5.40
2019-04-11T08:22:25.864Z,5.26
2019-04-11T08:25:00.853Z,5.66
2019-04-11T08:27:52.117Z,6.18
2019-04-11T08:30:16.971Z,6.14
2019-04-11T08:32:53.996Z,5.80
2019-04-11T08:35:40.031Z,5.98
2019-04-11T08:38:24.683Z,6.94
2019-04-11T08:41:01.035Z,7.57
2019-04-11T08:43:37.575Z,7.46
2019-04-11T08:46:22.618Z,7.91
2019-04-11T08:49:15.298Z,8.71
2019-04-11T08:51:49.540Z,8.96
2019-04-11T08:54:31.390Z,9.29
2019-04-11T08:57:04.698Z,9.18
2019-04-11T08:59:39.703Z,9.37
2019-04-11T09:02:12.806Z,9.56
2019-04-11T09:04:48.171Z,10.11
2019-04-11T09:07:35.942Z,10.26
2019-04-11T09:10:28.178Z,10.27
2019-04-11T09:13:15.300Z,10.63
2019-04-11T09:16:05.578Z,10.77
2019-04-11T09:18:39.852Z,9.95
2019-04-11T09:21:28.850Z,9.32
2019-04-11T09:24:02.928Z,9.32
2019-04-11T09:26:53.422Z,10.19
2019-04-11T09:29:39.919Z,10.49
2019-04-11T09:32:28.498Z,10.32
2019-04-11T09:35:10.037Z,8.86
2019-04-11T09:37:44.569Z,8.87
2019-04-11T09:40:34.789Z,8.48
2019-04-11T09:43:24.207Z,7.88
2019-04-11T09:46:16.592Z,7.85
2019-04-11T09:48:48.763Z,7.89
2019-04-11T09:51:31.763Z,7.41
2019-04-11T09:54:15.645Z,7.25
2019-04-11T09:56:49.734Z,7.19
2019-04-11T09:59:37.068Z,7.08
2019-04-11T10:02:12.715Z,7.23
2019-04-11T10:04:48.460Z,6.98
2019-04-11T10:07:27.916Z,7.09
2019-04-11T10:10:05.023Z,7.16
2019-04-11T10:12:40.581Z,7.32
2019-04-11T10:15:15.380Z,7.43
2019-04-11T10:18:19.562Z,7.31
2019-04-11T10:20:42.729Z,7.41
2019-04-11T10:23:32.811Z,7.63
2019-04-11T10:26:06.213Z,7.73
2019-04-11T10:28:56.651Z,7.56
2019-04-11T10:31:30.596Z,7.59
2019-04-11T10:34:15.009Z,7.53
2019-04-11T10:36:49.598Z,7.59
2019-04-11T10:39:35.412Z,7.62
2019-04-11T10:42:10.582Z,7.36
2019-04-11T10:44:54.111Z,7.57
2019-04-11T10:47:29.105Z,7.67
2019-04-11T10:50:03.513Z,7.83
2019-04-11T10:52:40.340Z,7.57
2019-04-11T10:55:15.602Z,7.66
2019-04-11T10:57:49.591Z,7.54
2019-04-11T11:00:27.275Z,7.52
2019-04-11T11:03:04.144Z,7.45
2019-04-11T11:05:40.550Z,7.65
2019-04-11T11:08:21.564Z,7.52
2019-04-11T11:10:55.945Z,7.67
2019-04-11T11:13:45.884Z,7.68
2019-04-11T11:16:20.349Z,7.69
2019-04-11T11:19:39.057Z,7.80
2019-04-11T11:21:43.731Z,7.89
2019-04-11T11:24:17.952Z,7.85
2019-04-11T11:26:53.729Z,7.85
2019-04-11T11:29:31.832Z,7.72
2019-04-11T11:32:07.056Z,7.50
2019-04-11T11:34:49.325Z,7.67
2019-04-11T11:37:35.387Z,7.83
2019-04-11T11:40:17.967Z,7.80
2019-04-11T11:42:50.584Z,7.87
2019-04-11T11:45:30.780Z,7.88
2019-04-11T11:48:10.696Z,7.84
2019-04-11T11:50:39.190Z,7.99
2019-04-11T11:53:14.764Z,7.85
2019-04-11T11:55:49.575Z,7.87
2019-04-11T11:58:25.779Z,8.01
2019-04-11T12:01:03.639Z,8.19
2019-04-11T12:03:35.082Z,8.15
2019-04-11T12:06:09.596Z,8.08
2019-04-11T12:09:00.399Z,8.01
2019-04-11T12:11:36.182Z,7.92
2019-04-11T12:14:20.549Z,7.99
2019-04-11T12:17:10.238Z,7.89
2019-04-11T12:19:52.294Z,7.75
2019-04-11T12:22:20.024Z,7.65
2019-04-11T12:25:07.187Z,7.68
2019-04-11T12:27:45.737Z,7.77
2019-04-11T12:30:23.495Z,7.79
2019-04-11T12:32:52.936Z,7.67
2019-04-11T12:35:36.661Z,7.69
2019-04-11T12:38:20.419Z,7.59
2019-04-11T12:41:10.753Z,7.57
2019-04-11T12:44:01.143Z,7.42
2019-04-11T12:46:51.239Z,7.30
2019-04-11T12:49:26.301Z,7.16
2019-04-11T12:52:16.587Z,7.11
2019-04-11T12:54:52.749Z,7.20
2019-04-11T12:57:42.966Z,7.16
2019-04-11T13:00:17.794Z,7.18
2019-04-11T13:03:02.218Z,7.18
2019-04-11T13:05:36.330Z,7.04
2019-04-11T13:08:08.220Z,7.06
2019-04-11T13:10:42.724Z,7.03
2019-04-11T13:13:28.604Z,7.27
2019-04-11T13:16:11.964Z,7.21
2019-04-11T13:18:57.830Z,7.26
2019-04-11T13:21:40.745Z,7.39
2019-04-11T13:24:15.066Z,7.34
2019-04-11T13:26:58.183Z,7.25
2019-04-11T13:29:42.751Z,7.23
2019-04-11T13:32:28.126Z,7.15
2019-04-11T13:35:09.511Z,7.28
2019-04-11T13:37:52.383Z,7.48
2019-04-11T13:40:30.015Z,7.56
2019-04-11T13:43:06.897Z,7.46
2019-04-11T13:45:47.130Z,7.37
2019-04-11T13:48:37.650Z,7.58
2019-04-11T13:51:11.929Z,7.50
2019-04-11T13:54:01.902Z,7.13
2019-04-11T13:56:52.752Z,7.12
2019-04-11T13:59:34.153Z,7.08
2019-04-11T14:02:13.889Z,6.99
2019-04-11T14:04:57.354Z,6.85
2019-04-11T14:07:31.246Z,6.98
2019-04-11T14:10:05.276Z,7.06
2019-04-11T14:12:39.546Z,7.02
2019-04-11T14:15:30.761Z,7.07
2019-04-11T14:18:05.172Z,6.90
2019-04-11T14:20:54.458Z,7.00
2019-04-11T14:23:41.878Z,7.04
2019-04-11T14:26:16.678Z,7.04
2019-04-11T14:28:50.721Z,6.87
2019-04-11T14:31:36.906Z,6.61
2019-04-11T14:34:13.383Z,6.72
2019-04-11T14:36:50.012Z,6.77
2019-04-11T14:39:27.671Z,6.70
2019-04-11T14:42:01.377Z,6.69
2019-04-11T14:44:38.440Z,6.68
2019-04-11T14:47:24.247Z,6.61
2019-04-11T14:50:05.384Z,6.53
2019-04-11T14:52:47.654Z,6.53
2019-04-11T14:55:21.918Z,6.65
2019-04-11T14:58:05.071Z,6.66
2019-04-11T15:00:39.051Z,6.49
2019-04-11T15:03:14.080Z,6.49
2019-04-11T15:05:48.166Z,6.36
2019-04-11T15:08:25.074Z,6.42
2019-04-11T15:10:59.403Z,6.37
2019-04-11T15:13:33.718Z,6.29
2019-04-11T15:16:27.386Z,6.26
2019-04-11T15:19:01.196Z,6.31
2019-04-11T15:21:51.491Z,6.24
2019-04-11T15:24:24.363Z,6.24
2019-04-11T15:27:14.871Z,6.17
2019-04-11T15:29:47.442Z,6.09
2019-04-11T15:32:33.633Z,5.96
2019-04-11T15:35:07.647Z,5.91
2019-04-11T15:37:42.021Z,5.81
2019-04-11T15:40:17.297Z,5.78
2019-04-11T15:42:55.415Z,5.70
2019-04-11T15:45:32.283Z,5.66
2019-04-11T15:48:23.457Z,5.65
2019-04-11T15:51:06.719Z,5.63
2019-04-11T15:53:46.988Z,5.58
2019-04-11T15:56:41.687Z,5.63
2019-04-11T15:59:13.113Z,5.57
2019-04-11T16:02:04.060Z,5.55
2019-04-11T16:04:38.468Z,5.54
2019-04-11T16:07:13.596Z,5.48
2019-04-11T16:09:50.466Z,5.36
2019-04-11T16:12:40.663Z,5.39
2019-04-11T16:15:15.704Z,5.36
2019-04-11T16:18:04.761Z,5.31
2019-04-11T16:20:37.047Z,5.27
2019-04-11T16:23:13.956Z,5.30
2019-04-11T16:25:48.232Z,5.23
2019-04-11T16:28:22.431Z,5.20
2019-04-11T16:30:56.654Z,5.17
2019-04-11T16:33:36.551Z,5.17
2019-04-11T16:36:19.492Z,5.13
2019-04-11T16:38:51.903Z,5.06
2019-04-11T16:41:42.593Z,5.06
2019-04-11T16:44:24.832Z,5.04
2019-04-11T16:47:04.848Z,4.94
2019-04-11T16:49:37.088Z,4.90
2019-04-11T16:52:09.301Z,4.88
2019-04-11T16:54:41.434Z,4.81
2019-04-11T16:57:14.317Z,4.81
2019-04-11T16:59:49.596Z,4.75
2019-04-11T17:02:21.850Z,4.76
2019-04-11T17:04:56.351Z,4.76
2019-04-11T17:07:46.466Z,4.73
2019-04-11T17:10:20.520Z,4.67
2019-04-11T17:12:53.878Z,4.66
2019-04-11T17:15:30.492Z,4.63
2019-04-11T17:18:02.194Z,4.62
2019-04-11T17:20:36.180Z,4.63
2019-04-11T17:23:09.802Z,4.60
2019-04-11T17:25:42.364Z,4.58
2019-04-11T17:28:14.957Z,4.58
2019-04-11T17:30:47.526Z,4.53
2019-04-11T17:33:19.818Z,4.46
2019-04-11T17:35:52.474Z,4.43
2019-04-11T17:38:25.164Z,4.43
2019-04-11T17:40:57.938Z,4.43
2019-04-11T17:43:31.028Z,4.40
2019-04-11T17:46:03.915Z,4.39
2019-04-11T17:48:36.706Z,4.39
2019-04-11T17:51:09.707Z,4.37
2019-04-11T17:53:42.773Z,4.37
2019-04-11T17:56:15.352Z,4.41
2019-04-11T17:58:49.327Z,4.39
2019-04-11T18:01:22.038Z,4.38
2019-04-11T18:03:54.721Z,4.40
2019-04-11T18:06:26.961Z,4.35
2019-04-11T18:08:59.647Z,4.36
2019-04-11T18:11:32.228Z,4.33
2019-04-11T18:14:04.915Z,4.32
2019-04-11T18:16:37.651Z,4.33
2019-04-11T18:19:10.182Z,4.33
2019-04-11T18:21:42.854Z,4.34
2019-04-11T18:24:15.052Z,4.33
2019-04-11T18:26:51.597Z,4.31
2019-04-11T18:29:23.048Z,4.31
2019-04-11T18:31:55.997Z,4.28
2019-04-11T18:34:41.082Z,4.30
2019-04-11T18:37:32.185Z,4.29
2019-04-11T18:40:23.816Z,4.26
2019-04-11T18:43:16.272Z,4.27
2019-04-11T18:46:08.845Z,4.28
2019-04-11T18:48:54.497Z,4.29
2019-04-11T18:51:30.513Z,4.25
2019-04-11T18:54:03.445Z,4.24
2019-04-11T18:56:43.825Z,4.26
2019-04-11T18:59:28.840Z,4.25
2019-04-11T19:02:14.772Z,4.26
2019-04-11T19:05:02.116Z,4.24
2019-04-11T19:07:42.827Z,4.25
2019-04-11T19:10:15.970Z,4.21
2019-04-11T19:12:48.432Z,4.22
2019-04-11T19:15:31.975Z,4.16
2019-04-11T19:18:08.197Z,4.15
2019-04-11T19:20:43.353Z,4.18
2019-04-11T19:23:16.571Z,4.21
2019-04-11T19:25:48.850Z,4.17
2019-04-11T19:28:24.907Z,4.13
2019-04-11T19:30:56.848Z,4.13
2019-04-11T19:33:40.020Z,4.09
2019-04-11T19:36:28.645Z,4.09
2019-04-11T19:39:19.107Z,4.09
2019-04-11T19:41:57.837Z,4.08
2019-04-11T19:44:31.972Z,4.06
2019-04-11T19:47:04.631Z,4.07
2019-04-11T19:49:37.397Z,4.03
2019-04-11T19:52:09.873Z,4.07
2019-04-11T19:54:42.207Z,4.06
2019-04-11T19:57:14.837Z,4.02
2019-04-11T19:59:47.173Z,3.97
2019-04-11T20:02:23.194Z,3.95
2019-04-11T20:04:57.660Z,3.97
2019-04-11T20:07:27.661Z,3.98
2019-04-11T20:10:01.491Z,3.96
2019-04-11T20:12:34.384Z,3.96
2019-04-11T20:15:08.840Z,3.97
2019-04-11T20:17:44.652Z,3.90
2019-04-11T20:20:16.104Z,3.92
2019-04-11T20:22:58.485Z,3.93
2019-04-11T20:25:24.140Z,3.92
2019-04-11T20:27:57.490Z,3.89
2019-04-11T20:30:34.562Z,3.91
2019-04-11T20:33:07.279Z,3.92
2019-04-11T20:35:40.598Z,3.86
2019-04-11T20:38:16.190Z,3.84
2019-04-11T20:40:53.284Z,3.82
2019-04-11T20:43:25.927Z,3.87
2019-04-11T20:46:00.422Z,3.83
2019-04-11T20:48:37.776Z,3.82
2019-04-11T20:51:10.683Z,3.81
2019-04-11T20:53:43.363Z,3.80
2019-04-11T20:56:23.920Z,3.79
2019-04-11T20:58:50.977Z,3.75
2019-04-11T21:01:23.788Z,3.76
2019-04-11T21:04:00.081Z,3.74
2019-04-11T21:06:32.038Z,3.73
2019-04-11T21:09:09.166Z,3.76
2019-04-11T21:11:42.348Z,3.72
2019-04-11T21:14:15.039Z,3.72
2019-04-11T21:16:47.741Z,3.67
2019-04-11T21:19:20.289Z,3.69
2019-04-11T21:21:53.586Z,3.69
2019-04-11T21:24:30.562Z,3.68
2019-04-11T21:27:01.400Z,3.66
2019-04-11T21:29:33.727Z,3.64
2019-04-11T21:32:06.348Z,3.62
2019-04-11T21:34:39.044Z,3.62
2019-04-11T21:37:12.527Z,3.65
2019-04-11T21:39:45.931Z,3.64
2019-04-11T21:42:18.222Z,3.65
2019-04-11T21:44:50.826Z,3.60
2019-04-11T21:47:23.453Z,3.60
2019-04-11T21:49:56.177Z,3.59
2019-04-11T21:52:28.906Z,3.57
2019-04-11T21:55:01.694Z,3.55
2019-04-11T21:57:34.002Z,3.55
2019-04-11T22:00:16.986Z,3.56
2019-04-11T22:02:52.006Z,3.51
2019-04-11T22:05:29.005Z,3.53
2019-04-11T22:08:00.949Z,3.53
2019-04-11T22:10:34.093Z,3.50
2019-04-11T22:13:09.842Z,3.51
2019-04-11T22:15:42.420Z,3.49
2019-04-11T22:18:16.689Z,3.48
2019-04-11T22:20:49.891Z,3.47
2019-04-11T22:23:22.468Z,3.51
2019-04-11T22:25:55.038Z,3.46
2019-04-11T22:28:27.815Z,3.45
2019-04-11T22:31:00.366Z,3.44
2019-04-11T22:33:34.125Z,3.44
2019-04-11T22:36:06.254Z,3.43
2019-04-11T22:38:38.954Z,3.37
2019-04-11T22:41:12.032Z,3.39
2019-04-11T22:43:44.710Z,3.40
2019-04-11T22:46:20.989Z,3.42
2019-04-11T22:48:51.717Z,3.42
2019-04-11T22:51:24.438Z,3.44
2019-04-11T22:54:00.492Z,3.42
2019-04-11T22:56:30.967Z,3.42
2019-04-11T22:59:03.251Z,3.43
2019-04-11T23:01:35.936Z,3.44
2019-04-11T23:04:08.604Z,3.45
2019-04-11T23:06:41.047Z,3.42
2019-04-11T23:09:14.071Z,3.42
2019-04-11T23:11:46.288Z,3.43
2019-04-11T23:14:19.314Z,3.44
2019-04-11T23:16:51.534Z,3.46
2019-04-11T23:19:24.271Z,3.45
2019-04-11T23:21:56.952Z,3.37
2019-04-11T23:24:29.625Z,3.33
2019-04-11T23:27:02.197Z,3.30
2019-04-11T23:29:34.888Z,3.31
2019-04-11T23:32:07.608Z,3.34
2019-04-11T23:34:40.443Z,3.33
2019-04-11T23:37:12.907Z,3.31
2019-04-11T23:39:45.594Z,3.31
2019-04-11T23:42:20.373Z,3.31
2019-04-11T23:44:53.110Z,3.31
2019-04-11T23:47:25.690Z,3.28
2019-04-11T23:50:00.317Z,3.29
2019-04-11T23:52:32.546Z,3.31
2019-04-11T23:55:05.972Z,3.31
2019-04-11T23:57:38.651Z,3.29
